Terminal Aerodrome Forecast
Issued by NWS Cleveland, OH

Home | Current Version | Previous Version | Text Only | Print | Product List | Glossary Off
Versions: 1 2 3 4 5 6 7 8 9 10 11 12 13 14 15 16 17 18 19 20

000
FTUS41 KCLE 192300
TAFERI
TAF
KERI 192328Z 2000/2024 04005KT P6SM BKN100
      TEMPO 2002/2005 VRB20G30KT 2SM +TSRA OVC025CB
     FM200500 22008KT 6SM BR OVC050
      TEMPO 2005/2008 4SM -SHRA
     FM200800 20006KT 4SM BR BKN035
     FM201300 22008KT P6SM BKN050
     FM201900 23008KT P6SM VCSH OVC035=

USA.gov is the U.S. government's official web portal to all federal, state and local government web resources and services.